Terminal Aerodrome Forecast
Issued by NWS Twin Cities, MN

Home | Current Version | Previous Version | Graphics & Text | Print | Product List | Glossary On
Versions: 1 2 3 4 5 6 7 8 9 10 11 12 13 14 15 16 17 18 19 20 21 22 23 24 25 26
000
FTUS43 KMPX 181700 RRA
TAFMSP
TAF
KMSP 181744Z 1818/1924 11007KT P6SM SCT060
     FM182300 16010KT P6SM SCT060 SCT200
     FM191000 17014KT P6SM FEW030 BKN050
     FM191800 18016G23KT P6SM BKN030 OVC050=

USA.gov is the U.S. government's official web portal to all federal, state and local government web resources and services.